Terminal Aerodrome Forecast
Issued by NWS

Home | Current Version | Previous Version | Text Only | Print | Product List | Glossary On
Versions: 1 2 3 4 5 6 7 8 9 10 11 12 13 14
000
FTUS45 KRIW 241700
TAFCPR
TAF
KCPR 241728Z 2418/2518 30014G24KT P6SM BKN080
     FM242300 24010KT P6SM SCT080
     FM250800 23014G24KT P6SM FEW080 SCT150
     FM251300 23028G38KT P6SM SCT080 SCT150=

USA.gov is the U.S. government's official web portal to all federal, state and local government web resources and services.